createdAt,value
2018-06-28T00:00:55.164Z,18.44
2018-06-28T00:03:23.934Z,18.23
2018-06-28T00:05:52.537Z,18.28
2018-06-28T00:08:21.100Z,18.08
2018-06-28T00:10:49.814Z,18.12
2018-06-28T00:13:18.440Z,17.98
2018-06-28T00:15:47.049Z,17.86
2018-06-28T00:18:15.692Z,17.76
2018-06-28T00:20:44.249Z,17.84
2018-06-28T00:23:12.888Z,17.68
2018-06-28T00:25:41.559Z,17.61
2018-06-28T00:28:10.112Z,17.61
2018-06-28T00:30:38.720Z,17.57
2018-06-28T00:33:07.284Z,17.37
2018-06-28T00:35:35.837Z,17.23
2018-06-28T00:38:04.416Z,17.19
2018-06-28T00:40:32.981Z,17.19
2018-06-28T00:43:01.605Z,16.96
2018-06-28T00:45:30.161Z,16.96
2018-06-28T00:47:58.921Z,16.74
2018-06-28T00:50:27.496Z,16.52
2018-06-28T00:52:56.092Z,16.46
2018-06-28T00:55:24.683Z,16.48
2018-06-28T00:57:53.216Z,16.58
2018-06-28T01:00:21.870Z,16.38
2018-06-28T01:02:50.453Z,16.34
2018-06-28T01:05:19.088Z,16.30
2018-06-28T01:07:47.681Z,16.33
2018-06-28T01:10:16.276Z,16.42
2018-06-28T01:12:45.408Z,16.09
2018-06-28T01:15:14.164Z,16.06
2018-06-28T01:17:42.765Z,15.87
2018-06-28T01:20:11.515Z,15.67
2018-06-28T01:22:40.132Z,15.58
2018-06-28T01:25:08.758Z,15.62
2018-06-28T01:27:37.353Z,15.63
2018-06-28T01:30:06.441Z,15.50
2018-06-28T01:32:35.006Z,15.67
2018-06-28T01:35:03.793Z,15.70
2018-06-28T01:37:32.456Z,15.54
2018-06-28T01:40:01.058Z,15.67
2018-06-28T01:42:45.432Z,15.60
2018-06-28T01:45:13.988Z,15.22
2018-06-28T01:47:42.532Z,15.32
2018-06-28T01:50:11.116Z,15.39
2018-06-28T01:52:39.932Z,15.45
2018-06-28T01:55:08.505Z,15.26
2018-06-28T01:57:37.057Z,15.32
2018-06-28T02:00:06.236Z,15.26
2018-06-28T02:02:34.771Z,15.15
2018-06-28T02:05:03.410Z,15.26
2018-06-28T02:07:32.300Z,15.28
2018-06-28T02:10:01.050Z,15.22
2018-06-28T02:12:29.626Z,15.21
2018-06-28T02:14:58.598Z,15.03
2018-06-28T02:17:27.240Z,15.08
2018-06-28T02:19:55.781Z,15.08
2018-06-28T02:22:24.592Z,14.93
2018-06-28T02:24:53.180Z,14.86
2018-06-28T02:27:21.764Z,14.81
2018-06-28T02:29:50.392Z,14.83
2018-06-28T02:32:18.945Z,14.93
2018-06-28T02:34:47.573Z,14.90
2018-06-28T02:37:16.186Z,14.98
2018-06-28T02:39:44.748Z,15.28
2018-06-28T02:42:13.417Z,14.99
2018-06-28T02:44:42.060Z,14.87
2018-06-28T02:47:10.901Z,14.76
2018-06-28T02:49:39.532Z,14.53
2018-06-28T02:52:08.144Z,14.56
2018-06-28T02:54:36.678Z,14.60
2018-06-28T02:57:05.210Z,14.32
2018-06-28T02:59:34.008Z,14.36
2018-06-28T03:02:02.530Z,14.21
2018-06-28T03:04:31.109Z,14.31
2018-06-28T03:06:59.752Z,14.33
2018-06-28T03:09:28.307Z,14.17
2018-06-28T03:11:57.201Z,14.15
2018-06-28T03:14:25.824Z,14.17
2018-06-28T03:16:54.445Z,14.46
2018-06-28T03:19:23.008Z,14.24
2018-06-28T03:21:51.611Z,14.22
2018-06-28T03:24:20.548Z,14.24
2018-06-28T03:26:49.145Z,14.27
2018-06-28T03:29:17.682Z,14.20
2018-06-28T03:31:46.241Z,14.26
2018-06-28T03:34:15.023Z,13.99
2018-06-28T03:36:43.837Z,14.24
2018-06-28T03:39:13.750Z,13.93
2018-06-28T03:41:42.869Z,14.01
2018-06-28T03:44:13.212Z,14.03
2018-06-28T03:46:42.193Z,14.09
2018-06-28T03:49:11.843Z,14.10
2018-06-28T03:51:40.728Z,14.14
2018-06-28T03:54:09.956Z,14.25
2018-06-28T03:56:39.033Z,13.86
2018-06-28T03:59:07.868Z,14.12
2018-06-28T04:01:36.464Z,14.03
2018-06-28T04:04:05.110Z,14.23
2018-06-28T04:06:33.754Z,14.07
2018-06-28T04:09:02.356Z,14.09
2018-06-28T04:11:30.901Z,13.91
2018-06-28T04:13:59.498Z,14.00
2018-06-28T04:16:28.162Z,14.00
2018-06-28T04:18:56.801Z,14.10
2018-06-28T04:21:25.408Z,14.00
2018-06-28T04:23:54.241Z,14.37
2018-06-28T04:26:23.217Z,14.09
2018-06-28T04:28:51.797Z,14.65
2018-06-28T04:31:20.427Z,15.25
2018-06-28T04:33:49.120Z,15.82
2018-06-28T04:36:17.716Z,15.98
2018-06-28T04:38:46.268Z,16.92
2018-06-28T04:41:14.924Z,17.42
2018-06-28T04:43:43.497Z,17.26
2018-06-28T04:46:12.084Z,16.98
2018-06-28T04:48:40.788Z,17.00
2018-06-28T04:51:09.378Z,17.09
2018-06-28T04:53:37.894Z,16.99
2018-06-28T04:56:06.595Z,17.24
2018-06-28T04:58:35.164Z,17.62
2018-06-28T05:01:03.822Z,18.10
2018-06-28T05:03:32.472Z,18.43
2018-06-28T05:06:01.032Z,18.90
2018-06-28T05:08:29.653Z,19.34
2018-06-28T05:10:58.217Z,19.09
2018-06-28T05:13:26.780Z,19.58
2018-06-28T05:15:55.353Z,19.66
2018-06-28T05:18:23.949Z,19.81
2018-06-28T05:20:52.474Z,20.02
2018-06-28T05:23:21.045Z,20.27
2018-06-28T05:25:49.753Z,20.10
2018-06-28T05:28:18.392Z,20.21
2018-06-28T05:30:47.157Z,20.56
2018-06-28T05:33:15.717Z,20.51
2018-06-28T05:35:44.290Z,20.56
2018-06-28T05:38:12.914Z,20.53
2018-06-28T05:40:41.500Z,20.99
2018-06-28T05:43:10.109Z,21.97
2018-06-28T05:45:38.677Z,21.03
2018-06-28T05:48:07.371Z,21.35
2018-06-28T05:50:35.984Z,21.19
2018-06-28T05:53:04.597Z,21.54
2018-06-28T05:55:33.184Z,21.89
2018-06-28T05:58:01.872Z,21.89
2018-06-28T06:00:30.534Z,22.51
2018-06-28T06:02:59.099Z,22.36
2018-06-28T06:05:27.653Z,22.33
2018-06-28T06:07:56.184Z,22.36
2018-06-28T06:10:24.943Z,22.72
2018-06-28T06:12:53.692Z,23.36
2018-06-28T06:15:22.254Z,23.27
2018-06-28T06:17:50.814Z,23.59
2018-06-28T06:20:19.488Z,23.84
2018-06-28T06:22:48.012Z,23.98
2018-06-28T06:25:16.662Z,24.51
2018-06-28T06:27:45.300Z,23.47
2018-06-28T06:30:14.094Z,23.38
2018-06-28T06:32:42.621Z,23.67
2018-06-28T06:35:11.165Z,23.84
2018-06-28T06:37:39.728Z,23.71
2018-06-28T06:40:08.313Z,23.53
2018-06-28T06:42:37.152Z,23.84
2018-06-28T06:45:06.333Z,24.34
2018-06-28T06:47:35.144Z,23.80
2018-06-28T06:50:03.828Z,24.08
2018-06-28T06:52:32.535Z,23.69
2018-06-28T06:55:01.124Z,24.16
2018-06-28T06:57:29.738Z,24.01
2018-06-28T06:59:58.368Z,24.13
2018-06-28T07:02:26.901Z,23.92
2018-06-28T07:04:55.552Z,23.81
2018-06-28T07:07:24.209Z,23.91
2018-06-28T07:09:52.692Z,23.86
2018-06-28T07:12:21.280Z,24.25
2018-06-28T07:14:50.009Z,23.60
2018-06-28T07:17:18.944Z,23.77
2018-06-28T07:19:47.709Z,23.47
2018-06-28T07:22:16.264Z,23.93
2018-06-28T07:24:44.929Z,23.63
2018-06-28T07:27:13.550Z,23.74
2018-06-28T07:29:42.120Z,23.91
2018-06-28T07:32:10.685Z,23.98
2018-06-28T07:34:39.302Z,24.09
2018-06-28T07:37:07.821Z,24.14
2018-06-28T07:39:36.492Z,24.20
2018-06-28T07:42:05.066Z,24.06
2018-06-28T07:44:33.652Z,24.32
2018-06-28T07:47:02.345Z,24.31
2018-06-28T07:49:31.049Z,24.33
2018-06-28T07:51:59.776Z,24.15
2018-06-28T07:54:28.469Z,24.00
2018-06-28T07:56:57.153Z,23.64
2018-06-28T07:59:26.000Z,24.14
2018-06-28T08:01:54.548Z,24.51
2018-06-28T08:04:23.096Z,24.34
2018-06-28T08:06:51.880Z,24.37
2018-06-28T08:09:20.405Z,24.57
2018-06-28T08:11:48.973Z,24.86
2018-06-28T08:14:17.621Z,24.81
2018-06-28T08:16:46.221Z,24.76
2018-06-28T08:19:14.849Z,24.65
2018-06-28T08:21:43.432Z,24.70
2018-06-28T08:24:12.036Z,24.82
2018-06-28T08:26:40.614Z,24.95
2018-06-28T08:29:09.218Z,25.24
2018-06-28T08:31:37.837Z,25.14
2018-06-28T08:34:06.723Z,25.05
2018-06-28T08:36:35.651Z,25.33
2018-06-28T08:39:06.414Z,25.27
2018-06-28T08:41:35.308Z,25.13
2018-06-28T08:44:03.924Z,25.42
2018-06-28T08:46:32.576Z,25.17
2018-06-28T08:49:01.208Z,24.98
2018-06-28T08:51:29.807Z,25.54
2018-06-28T08:53:58.514Z,25.28
2018-06-28T08:56:27.133Z,25.69
2018-06-28T08:58:55.684Z,25.59
2018-06-28T09:01:24.260Z,25.43
2018-06-28T09:03:52.777Z,25.14
2018-06-28T09:06:21.369Z,25.60
2018-06-28T09:08:49.992Z,25.67
2018-06-28T09:11:18.921Z,25.42
2018-06-28T09:13:47.437Z,25.49
2018-06-28T09:16:15.977Z,25.79
2018-06-28T09:18:44.809Z,25.76
2018-06-28T09:21:13.504Z,25.84
2018-06-28T09:23:42.125Z,25.79
2018-06-28T09:26:10.738Z,25.77
2018-06-28T09:28:39.307Z,25.07
2018-06-28T09:31:07.892Z,24.86
2018-06-28T09:33:36.524Z,24.55
2018-06-28T09:36:05.136Z,25.01
2018-06-28T09:38:33.692Z,25.64
2018-06-28T09:41:02.316Z,25.63
2018-06-28T09:43:30.877Z,25.96
2018-06-28T09:45:59.468Z,26.20
2018-06-28T09:48:28.142Z,26.11
2018-06-28T09:50:56.661Z,26.24
2018-06-28T09:53:25.244Z,26.97
2018-06-28T09:55:53.758Z,26.42
2018-06-28T09:58:22.425Z,26.63
2018-06-28T10:00:51.068Z,26.67
2018-06-28T10:03:19.635Z,26.58
2018-06-28T10:05:48.209Z,26.20
2018-06-28T10:08:16.700Z,26.39
2018-06-28T10:10:45.262Z,26.55
2018-06-28T10:13:13.977Z,26.32
2018-06-28T10:15:42.616Z,26.19
2018-06-28T10:18:11.301Z,26.54
2018-06-28T10:20:39.830Z,26.57
2018-06-28T10:23:08.668Z,26.67
2018-06-28T10:25:37.248Z,26.65
2018-06-28T10:28:05.934Z,26.64
2018-06-28T10:30:34.513Z,26.48
2018-06-28T10:33:03.119Z,26.62
2018-06-28T10:35:31.716Z,26.98
2018-06-28T10:38:00.252Z,27.01
2018-06-28T10:40:29.052Z,27.01
2018-06-28T10:42:57.608Z,27.04
2018-06-28T10:45:26.285Z,27.12
2018-06-28T10:47:54.820Z,26.91
2018-06-28T10:50:23.411Z,26.66
2018-06-28T10:52:51.972Z,26.63
2018-06-28T10:55:20.495Z,26.65
2018-06-28T10:57:49.526Z,26.68
2018-06-28T11:00:18.520Z,26.86
2018-06-28T11:02:47.458Z,26.95
2018-06-28T11:05:16.104Z,27.12
2018-06-28T11:07:44.643Z,26.69
2018-06-28T11:10:13.202Z,26.25
2018-06-28T11:12:41.772Z,26.44
2018-06-28T11:15:10.404Z,27.00
2018-06-28T11:17:39.055Z,27.23
2018-06-28T11:20:07.592Z,26.93
2018-06-28T11:22:36.233Z,27.12
2018-06-28T11:25:04.900Z,26.97
2018-06-28T11:27:33.507Z,27.19
2018-06-28T11:30:02.101Z,27.53
2018-06-28T11:32:30.716Z,27.57
2018-06-28T11:34:59.291Z,27.49
2018-06-28T11:37:27.838Z,27.24
2018-06-28T11:39:56.629Z,26.92
2018-06-28T11:42:25.199Z,27.24
2018-06-28T11:44:53.753Z,26.88
2018-06-28T11:47:22.456Z,27.51
2018-06-28T11:49:51.014Z,27.58
2018-06-28T11:52:19.754Z,27.13
2018-06-28T11:54:48.336Z,27.34
2018-06-28T11:57:16.889Z,27.58
2018-06-28T11:59:45.438Z,27.57
2018-06-28T12:02:14.164Z,27.56
2018-06-28T12:04:42.836Z,28.12
2018-06-28T12:07:11.412Z,28.05
2018-06-28T12:09:40.029Z,27.45
2018-06-28T12:12:08.623Z,27.30
2018-06-28T12:14:37.336Z,27.39
2018-06-28T12:17:06.420Z,27.33
2018-06-28T12:19:35.072Z,27.19
2018-06-28T12:22:03.750Z,27.38
2018-06-28T12:24:32.276Z,27.67
2018-06-28T12:27:01.372Z,27.42
2018-06-28T12:29:30.256Z,27.59
2018-06-28T12:31:58.916Z,27.48
2018-06-28T12:34:27.548Z,27.82
2018-06-28T12:36:56.564Z,27.73
2018-06-28T12:39:25.216Z,27.48
2018-06-28T12:41:53.768Z,27.73
2018-06-28T12:44:22.361Z,27.36
2018-06-28T12:48:59.132Z,27.64
2018-06-28T12:51:38.940Z,27.79
2018-06-28T12:54:07.590Z,27.68
2018-06-28T12:56:37.630Z,27.82
2018-06-28T12:59:08.923Z,27.77
2018-06-28T13:01:37.477Z,28.02
2018-06-28T13:04:06.226Z,27.84
2018-06-28T13:06:34.865Z,27.77
2018-06-28T13:09:04.993Z,27.98
2018-06-28T13:11:33.576Z,27.81
2018-06-28T13:14:02.222Z,28.07
2018-06-28T13:16:30.844Z,28.04
2018-06-28T13:18:59.458Z,28.14
2018-06-28T13:21:28.009Z,28.10
2018-06-28T13:23:56.708Z,28.09
2018-06-28T13:26:25.368Z,28.01
2018-06-28T13:28:53.985Z,27.84
2018-06-28T13:31:22.652Z,27.80
2018-06-28T13:33:51.609Z,27.77
2018-06-28T13:36:20.148Z,27.23
2018-06-28T13:38:48.907Z,27.48
2018-06-28T13:41:17.782Z,27.57
2018-06-28T13:43:46.169Z,27.68
2018-06-28T13:46:14.887Z,27.81
2018-06-28T13:48:43.701Z,27.80
2018-06-28T13:51:12.372Z,28.02
2018-06-28T13:53:41.096Z,28.09
2018-06-28T13:56:09.816Z,28.54
2018-06-28T13:58:38.492Z,28.04
2018-06-28T14:01:07.145Z,28.04
2018-06-28T14:03:35.852Z,28.05
2018-06-28T14:06:04.566Z,28.18
2018-06-28T14:08:33.244Z,28.07
2018-06-28T14:11:01.861Z,28.16
2018-06-28T14:13:30.447Z,27.92
2018-06-28T14:15:59.064Z,28.25
2018-06-28T14:18:27.893Z,28.23
2018-06-28T14:20:56.421Z,28.37
2018-06-28T14:23:25.001Z,28.08
2018-06-28T14:25:53.717Z,28.01
2018-06-28T14:28:22.308Z,28.17
2018-06-28T14:30:51.117Z,28.64
2018-06-28T14:33:19.828Z,28.45
2018-06-28T14:35:48.448Z,28.56
2018-06-28T14:38:17.001Z,28.49
2018-06-28T14:40:45.622Z,28.02
2018-06-28T14:43:14.184Z,27.95
2018-06-28T14:45:42.835Z,28.21
2018-06-28T14:48:11.384Z,28.42
2018-06-28T14:50:40.169Z,28.59
2018-06-28T14:53:08.664Z,28.71
2018-06-28T14:55:37.308Z,28.75
2018-06-28T14:58:06.009Z,28.92
2018-06-28T15:00:34.620Z,28.54
2018-06-28T15:03:03.173Z,28.63
2018-06-28T15:05:31.784Z,28.82
2018-06-28T15:08:00.411Z,28.70
2018-06-28T15:10:29.056Z,28.76
2018-06-28T15:12:57.688Z,28.37
2018-06-28T15:15:26.263Z,28.58
2018-06-28T15:17:54.913Z,28.94
2018-06-28T15:20:23.547Z,28.96
2018-06-28T15:22:52.179Z,28.82
2018-06-28T15:25:20.852Z,28.60
2018-06-28T15:27:50.351Z,28.36
2018-06-28T15:30:18.856Z,28.54
2018-06-28T15:32:47.409Z,28.60
2018-06-28T15:35:16.331Z,28.31
2018-06-28T15:37:45.092Z,28.04
2018-06-28T15:40:13.781Z,27.90
2018-06-28T15:42:42.393Z,28.01
2018-06-28T15:45:11.044Z,27.90
2018-06-28T15:47:39.869Z,27.73
2018-06-28T15:50:08.664Z,27.68
2018-06-28T15:52:37.584Z,27.59
2018-06-28T15:55:06.241Z,27.71
2018-06-28T15:57:35.035Z,27.55
2018-06-28T16:00:03.721Z,27.43
2018-06-28T16:02:32.468Z,27.49
2018-06-28T16:05:01.093Z,27.44
2018-06-28T16:07:29.633Z,27.46
2018-06-28T16:09:58.260Z,27.45
2018-06-28T16:12:26.805Z,27.39
2018-06-28T16:14:55.668Z,27.15
2018-06-28T16:17:24.316Z,27.01
2018-06-28T16:19:52.939Z,27.13
2018-06-28T16:22:21.508Z,27.12
2018-06-28T16:24:50.039Z,27.18
2018-06-28T16:27:18.617Z,27.04
2018-06-28T16:29:47.184Z,27.09
2018-06-28T16:32:15.784Z,27.02
2018-06-28T16:34:44.544Z,27.08
2018-06-28T16:37:13.104Z,26.94
2018-06-28T16:39:41.624Z,27.12
2018-06-28T16:42:10.304Z,27.15
2018-06-28T16:44:38.905Z,27.14
2018-06-28T16:47:07.472Z,27.05
2018-06-28T16:49:36.065Z,26.99
2018-06-28T16:52:04.728Z,26.97
2018-06-28T16:54:33.280Z,26.76
2018-06-28T16:57:01.836Z,27.01
2018-06-28T16:59:30.585Z,26.81
2018-06-28T17:01:59.187Z,27.02
2018-06-28T17:04:27.971Z,27.00
2018-06-28T17:06:56.544Z,26.69
2018-06-28T17:09:25.124Z,26.85
2018-06-28T17:11:53.787Z,26.22
2018-06-28T17:14:22.424Z,26.31
2018-06-28T17:16:50.976Z,26.34
2018-06-28T17:19:19.540Z,26.63
2018-06-28T17:21:48.266Z,26.71
2018-06-28T17:24:16.851Z,26.81
2018-06-28T17:26:45.421Z,26.80
2018-06-28T17:29:13.964Z,26.60
2018-06-28T17:31:42.895Z,26.49
2018-06-28T17:34:11.450Z,26.62
2018-06-28T17:36:39.973Z,26.68
2018-06-28T17:39:09.612Z,26.66
2018-06-28T17:41:38.688Z,26.42
2018-06-28T17:44:07.489Z,26.50
2018-06-28T17:46:36.052Z,26.45
2018-06-28T17:49:04.688Z,26.50
2018-06-28T17:51:33.241Z,26.70
2018-06-28T17:54:01.848Z,26.48
2018-06-28T17:56:30.612Z,26.49
2018-06-28T17:58:59.135Z,26.36
2018-06-28T18:01:27.751Z,26.19
2018-06-28T18:03:56.333Z,26.45
2018-06-28T18:06:24.919Z,26.22
2018-06-28T18:08:53.590Z,26.26
2018-06-28T18:11:22.248Z,25.84
2018-06-28T18:13:50.856Z,25.98
2018-06-28T18:16:19.472Z,26.05
2018-06-28T18:18:48.473Z,26.18
2018-06-28T18:21:17.076Z,25.84
2018-06-28T18:23:45.656Z,25.93
2018-06-28T18:26:14.356Z,25.90
2018-06-28T18:28:42.964Z,25.86
2018-06-28T18:31:11.794Z,25.78
2018-06-28T18:33:40.284Z,25.96
2018-06-28T18:36:08.957Z,25.90
2018-06-28T18:38:37.692Z,25.94
2018-06-28T18:41:08.565Z,25.76
2018-06-28T18:43:37.364Z,25.75
2018-06-28T18:46:06.400Z,25.73
2018-06-28T18:48:35.049Z,25.68
2018-06-28T18:51:03.789Z,25.54
2018-06-28T18:53:32.656Z,25.53
2018-06-28T18:56:01.706Z,25.78
2018-06-28T18:58:30.464Z,25.69
2018-06-28T19:00:59.084Z,25.48
2018-06-28T19:03:27.656Z,25.38
2018-06-28T19:05:56.296Z,25.57
2018-06-28T19:08:24.801Z,25.36
2018-06-28T19:10:54.833Z,25.50
2018-06-28T19:13:24.686Z,25.35
2018-06-28T19:15:58.860Z,25.41
2018-06-28T19:18:27.728Z,25.58
2018-06-28T19:21:01.741Z,25.40
2018-06-28T19:23:35.505Z,25.50
2018-06-28T19:26:04.312Z,25.28
2018-06-28T19:28:32.969Z,25.29
2018-06-28T19:31:06.761Z,25.36
2018-06-28T19:33:35.380Z,25.37
2018-06-28T19:36:03.981Z,25.39
2018-06-28T19:38:37.970Z,25.25
2018-06-28T19:41:11.881Z,25.05
2018-06-28T19:43:40.508Z,24.99
2018-06-28T19:46:09.181Z,24.83
2018-06-28T19:48:37.709Z,25.12
2018-06-28T19:51:11.744Z,24.90
2018-06-28T19:53:40.325Z,24.70
2018-06-28T19:56:08.976Z,24.65
2018-06-28T19:58:37.580Z,24.76
2018-06-28T20:01:11.560Z,24.77
2018-06-28T20:03:45.444Z,24.56
2018-06-28T20:06:13.981Z,24.56
2018-06-28T20:08:42.531Z,24.33
2018-06-28T20:11:11.195Z,24.19
2018-06-28T20:13:44.928Z,24.21
2018-06-28T20:16:18.634Z,24.00
2018-06-28T20:18:52.439Z,23.91
2018-06-28T20:21:20.974Z,23.84
2018-06-28T20:23:49.661Z,23.87
2018-06-28T20:26:23.389Z,23.99
2018-06-28T20:28:57.244Z,23.98
2018-06-28T20:31:31.081Z,23.86
2018-06-28T20:34:04.946Z,23.98
2018-06-28T20:36:33.481Z,24.05
2018-06-28T20:39:01.986Z,24.10
2018-06-28T20:41:30.589Z,23.80
2018-06-28T20:43:59.307Z,23.79
2018-06-28T20:46:27.952Z,23.80
2018-06-28T20:48:56.828Z,23.92
2018-06-28T20:51:25.492Z,23.86
2018-06-28T20:53:54.061Z,23.58
2018-06-28T20:56:22.769Z,23.69
2018-06-28T20:58:51.412Z,23.76
2018-06-28T21:01:20.088Z,23.91
2018-06-28T21:03:48.800Z,23.85
2018-06-28T21:06:17.348Z,23.88
2018-06-28T21:08:45.963Z,23.91
2018-06-28T21:11:14.772Z,23.73
2018-06-28T21:13:43.348Z,23.56
2018-06-28T21:16:11.924Z,23.62
2018-06-28T21:18:40.537Z,23.43
2018-06-28T21:21:09.160Z,23.39
2018-06-28T21:23:37.921Z,23.49
2018-06-28T21:26:06.557Z,23.45
2018-06-28T21:28:35.111Z,23.50
2018-06-28T21:31:03.760Z,23.79
2018-06-28T21:33:32.416Z,23.64
2018-06-28T21:36:01.277Z,23.52
2018-06-28T21:38:29.829Z,23.58
2018-06-28T21:40:58.860Z,23.51
2018-06-28T21:43:27.367Z,23.42
2018-06-28T21:45:55.996Z,23.35
2018-06-28T21:48:24.631Z,23.26
2018-06-28T21:50:53.199Z,23.27
2018-06-28T21:53:21.772Z,23.16
2018-06-28T21:55:50.392Z,23.08
2018-06-28T21:58:19.237Z,23.03
2018-06-28T22:00:47.777Z,22.90
2018-06-28T22:03:16.421Z,23.09
2018-06-28T22:05:45.021Z,22.88
2018-06-28T22:08:13.654Z,22.87
2018-06-28T22:10:42.188Z,22.93
2018-06-28T22:13:10.768Z,22.98
2018-06-28T22:15:39.504Z,23.04
2018-06-28T22:18:08.029Z,23.07
2018-06-28T22:20:36.573Z,22.92
2018-06-28T22:23:05.230Z,22.97
2018-06-28T22:25:33.750Z,22.87
2018-06-28T22:28:02.293Z,22.75
2018-06-28T22:30:30.832Z,22.69
2018-06-28T22:32:59.375Z,22.63
2018-06-28T22:35:27.924Z,22.55
2018-06-28T22:37:56.564Z,22.58
2018-06-28T22:40:25.109Z,22.64
2018-06-28T22:42:53.651Z,22.76
2018-06-28T22:45:22.235Z,22.74
2018-06-28T22:47:50.830Z,22.64
2018-06-28T22:50:19.560Z,22.86
2018-06-28T22:52:48.164Z,22.58
2018-06-28T22:55:16.806Z,22.49
2018-06-28T22:57:45.424Z,22.71
2018-06-28T23:00:19.996Z,22.52
2018-06-28T23:02:48.540Z,21.97
2018-06-28T23:05:17.140Z,21.91
2018-06-28T23:07:45.691Z,22.23
2018-06-28T23:10:14.452Z,22.46
2018-06-28T23:12:43.468Z,22.43
2018-06-28T23:15:12.037Z,22.38
2018-06-28T23:17:40.629Z,22.28
2018-06-28T23:20:09.236Z,22.33
2018-06-28T23:22:50.943Z,22.28
2018-06-28T23:25:20.068Z,22.31
2018-06-28T23:27:49.459Z,22.22
2018-06-28T23:30:18.745Z,22.24
2018-06-28T23:32:47.174Z,22.20
2018-06-28T23:35:15.801Z,22.08
2018-06-28T23:37:44.380Z,22.13
2018-06-28T23:40:12.921Z,22.08
2018-06-28T23:42:41.568Z,21.99
2018-06-28T23:45:10.769Z,21.95
2018-06-28T23:47:39.493Z,21.74
2018-06-28T23:50:09.276Z,22.04
2018-06-28T23:52:37.844Z,21.94
2018-06-28T23:55:07.416Z,22.15
2018-06-28T23:57:36.524Z,22.18
